Date,TemperatureHighF,TemperatureAvgF,TemperatureLowF,DewpointHighF,DewpointAvgF,DewpointLowF,HumidityHigh,HumidityAvg,HumidityLow,PressureMaxIn,PressureMinIn,WindSpeedMaxMPH,WindSpeedAvgMPH,GustSpeedMaxMPH,PrecipitationSumIn
2013-10-1,79.5,65.8,46.9,53.9,42.3,28.6,75,47,16,29.90,29.53,1,0,0,0.00
2013-10-2,80.9,63.0,41.3,63.8,45.7,34.6,94,59,22,29.94,29.70,16,1,20,0.05
2013-10-3,60.9,60.2,59.1,59.7,59.0,58.2,98,96,94,29.74,29.66,11,2,16,0.12
2013-10-12,64.1,52.5,40.1,38.3,32.0,25.8,73,49,24,30.15,29.90,19,5,23,0.00
2013-10-13,62.9,47.7,32.1,38.3,33.4,28.5,88,61,32,30.37,30.15,9,1,0,0.00
2013-10-14,57.1,49.2,41.5,47.6,39.0,33.6,93,69,46,30.30,29.74,15,4,20,0.99
2013-10-15,54.3,49.0,44.9,52.4,47.3,43.8,97,94,90,29.79,29.58,23,7,25,0.10
2013-10-16,54.4,45.1,37.4,43.8,40.3,34.8,97,85,52,29.92,29.79,12,3,13,0.02
2013-10-17,62.2,43.6,33.0,44.6,37.5,31.3,95,82,40,29.86,29.71,15,3,17,0.00
2013-10-18,53.4,43.3,36.0,38.6,32.9,27.1,90,69,39,29.96,29.81,12,3,16,0.00
2013-10-19,51.2,38.4,28.2,40.8,31.7,23.8,93,78,45,29.82,29.66,17,4,19,0.01
2013-10-20,57.6,40.0,28.0,44.1,34.4,25.2,91,81,57,29.88,29.57,19,5,24,0.00
2013-10-21,44.1,34.7,25.6,32.4,26.1,22.5,92,72,47,29.95,29.88,16,3,23,0.00
2013-10-22,40.7,34.3,27.8,30.7,27.5,25.0,91,77,58,30.02,29.90,11,2,14,0.00
2013-10-23,38.4,33.5,25.0,30.4,25.9,21.5,92,74,54,30.08,29.98,14,2,17,0.00
2013-10-24,48.5,34.5,23.0,31.3,26.2,18.6,93,73,47,30.30,30.08,13,2,16,0.00
2013-10-25,59.3,41.2,23.0,39.6,31.4,21.3,94,71,47,30.31,29.81,32,9,33,0.00
2013-10-26,49.1,40.7,27.6,38.9,30.3,23.4,86,67,47,30.06,29.81,18,5,21,0.00
2013-10-27,64.3,42.4,25.4,38.9,31.0,22.6,90,67,38,30.01,29.74,19,4,20,0.00
2013-10-28,43.9,38.2,33.2,33.4,29.8,26.5,87,72,58,30.31,30.01,19,6,21,0.00
2013-10-29,51.4,42.6,35.1,42.2,35.4,26.6,89,76,62,30.29,29.98,15,4,16,0.02
2013-10-30,53.8,48.9,43.8,52.9,47.5,40.3,98,95,87,29.98,29.60,10,2,0,0.05
2013-10-31,46.8,40.2,38.4,45.9,38.6,36.0,98,94,90,29.60,29.37,13,5,15,0.01